createdAt,value
2023-05-05T00:02:22.806Z,62.69
2023-05-05T00:04:50.056Z,62.67
2023-05-05T00:07:17.183Z,62.39
2023-05-05T00:09:44.721Z,62.62
2023-05-05T00:12:11.869Z,62.12
2023-05-05T00:14:39.005Z,63.25
2023-05-05T00:17:06.181Z,63.39
2023-05-05T00:19:33.404Z,63.10
2023-05-05T00:22:00.756Z,63.01
2023-05-05T00:24:28.019Z,63.07
2023-05-05T00:26:55.286Z,62.65
2023-05-05T00:29:22.690Z,62.75
2023-05-05T00:31:53.251Z,62.71
2023-05-05T00:34:20.766Z,63.22
2023-05-05T00:36:48.619Z,63.01
2023-05-05T00:39:16.885Z,63.70
2023-05-05T00:41:44.232Z,63.76
2023-05-05T00:44:11.731Z,63.86
2023-05-05T00:46:40.714Z,64.15
2023-05-05T00:49:07.967Z,63.37
2023-05-05T00:51:35.424Z,63.72
2023-05-05T00:54:02.968Z,63.62
2023-05-05T00:56:30.548Z,62.63
2023-05-05T00:58:59.342Z,63.34
2023-05-05T01:01:26.571Z,63.30
2023-05-05T01:03:53.822Z,63.50
2023-05-05T01:06:23.857Z,63.55
2023-05-05T01:09:24.719Z,63.70
2023-05-05T01:12:08.293Z,64.12
2023-05-05T01:14:44.310Z,61.82
2023-05-05T01:17:17.450Z,62.25
2023-05-05T01:20:01.674Z,61.00
2023-05-05T01:22:40.456Z,61.00
2023-05-05T01:25:39.483Z,60.78
2023-05-05T01:28:09.637Z,60.96
2023-05-05T01:31:14.619Z,60.53
2023-05-05T01:33:50.112Z,60.50
2023-05-05T01:36:24.319Z,60.15
2023-05-05T01:38:58.260Z,59.50
2023-05-05T01:41:32.144Z,61.02
2023-05-05T01:44:03.343Z,60.83
2023-05-05T01:46:30.725Z,63.27
2023-05-05T01:48:59.316Z,61.81
2023-05-05T01:51:28.107Z,60.63
2023-05-05T01:53:59.316Z,60.88
2023-05-05T01:56:28.402Z,61.97
2023-05-05T01:58:56.367Z,60.50
2023-05-05T02:01:26.649Z,59.75
2023-05-05T02:03:57.040Z,59.61
2023-05-05T02:06:27.091Z,60.52
2023-05-05T02:08:55.769Z,60.28
2023-05-05T02:11:24.143Z,59.67
2023-05-05T02:13:51.634Z,58.67
2023-05-05T02:16:20.448Z,59.23
2023-05-05T02:18:48.723Z,58.73
2023-05-05T02:21:18.285Z,60.81
2023-05-05T02:23:51.658Z,59.24
2023-05-05T02:26:22.097Z,59.43
2023-05-05T02:28:58.698Z,59.41
2023-05-05T02:31:27.729Z,58.23
2023-05-05T02:33:58.111Z,58.48
2023-05-05T02:36:29.960Z,64.92
2023-05-05T02:39:04.855Z,66.78
2023-05-05T02:41:39.650Z,66.92
2023-05-05T02:44:16.012Z,67.70
2023-05-05T02:46:43.831Z,67.52
2023-05-05T02:49:11.092Z,66.96
2023-05-05T02:51:39.819Z,67.31
2023-05-05T02:54:16.732Z,67.10
2023-05-05T02:56:51.187Z,68.90
2023-05-05T02:59:25.093Z,68.47
2023-05-05T03:02:14.035Z,68.74
2023-05-05T03:04:54.315Z,68.51
2023-05-05T03:07:27.835Z,68.35
2023-05-05T03:10:06.483Z,67.37
2023-05-05T03:12:48.562Z,67.48
2023-05-05T03:15:41.556Z,67.34
2023-05-05T03:18:13.246Z,67.10
2023-05-05T03:20:44.466Z,67.50
2023-05-05T03:23:14.721Z,67.84
2023-05-05T03:25:46.140Z,67.26
2023-05-05T03:28:22.006Z,67.11
2023-05-05T03:30:49.257Z,66.95
2023-05-05T03:33:19.475Z,67.48
2023-05-05T03:35:50.729Z,67.21
2023-05-05T03:38:18.758Z,67.18
2023-05-05T03:40:46.404Z,66.49
2023-05-05T03:43:17.618Z,65.77
2023-05-05T03:45:44.745Z,65.42
2023-05-05T03:48:12.323Z,65.69
2023-05-05T03:50:41.262Z,65.22
2023-05-05T03:53:09.241Z,64.83
2023-05-05T03:55:37.111Z,64.26
2023-05-05T03:58:04.173Z,64.35
2023-05-05T04:00:32.306Z,63.62
2023-05-05T04:02:59.999Z,63.20
2023-05-05T04:05:27.244Z,63.17
2023-05-05T04:07:54.158Z,61.17
2023-05-05T04:10:21.723Z,59.81
2023-05-05T04:12:49.047Z,57.99
2023-05-05T04:15:16.652Z,57.12
2023-05-05T04:17:44.295Z,56.31
2023-05-05T04:20:11.727Z,54.72
2023-05-05T04:22:39.613Z,53.09
2023-05-05T04:25:07.669Z,53.02
2023-05-05T04:27:34.911Z,52.58
2023-05-05T04:30:02.227Z,52.35
2023-05-05T04:32:31.181Z,51.39
2023-05-05T04:34:58.885Z,50.41
2023-05-05T04:37:26.907Z,49.31
2023-05-05T04:39:54.107Z,49.17
2023-05-05T04:42:21.534Z,47.89
2023-05-05T04:44:48.558Z,46.53
2023-05-05T04:47:15.609Z,45.60
2023-05-05T04:49:43.629Z,44.93
2023-05-05T04:52:13.518Z,43.99
2023-05-05T04:54:40.572Z,44.35
2023-05-05T04:57:08.088Z,44.21
2023-05-05T04:59:36.960Z,44.31
2023-05-05T05:02:04.526Z,45.21
2023-05-05T05:04:31.726Z,45.16
2023-05-05T05:06:59.465Z,45.10
2023-05-05T05:09:27.651Z,44.96
2023-05-05T05:11:54.667Z,45.61
2023-05-05T05:14:21.966Z,46.59
2023-05-05T05:16:52.589Z,46.10
2023-05-05T05:19:22.000Z,46.52
2023-05-05T05:21:49.122Z,46.46
2023-05-05T05:24:16.404Z,46.55
2023-05-05T05:26:43.946Z,46.40
2023-05-05T05:29:11.376Z,47.28
2023-05-05T05:31:40.020Z,47.82
2023-05-05T05:34:07.930Z,46.59
2023-05-05T05:36:36.617Z,46.88
2023-05-05T05:39:03.873Z,46.35
2023-05-05T05:41:30.975Z,46.35
2023-05-05T05:44:01.521Z,45.70
2023-05-05T05:46:29.733Z,45.01
2023-05-05T05:48:57.872Z,45.38
2023-05-05T05:51:25.649Z,44.92
2023-05-05T05:53:53.003Z,43.37
2023-05-05T05:56:20.068Z,43.54
2023-05-05T05:58:48.808Z,42.40
2023-05-05T06:01:19.202Z,42.06
2023-05-05T06:03:47.147Z,41.86
2023-05-05T06:06:14.360Z,40.67
2023-05-05T06:08:41.421Z,40.55
2023-05-05T06:11:08.359Z,40.82
2023-05-05T06:13:35.479Z,40.86
2023-05-05T06:16:02.557Z,41.47
2023-05-05T06:18:29.564Z,42.16
2023-05-05T06:20:56.562Z,42.00
2023-05-05T06:23:27.392Z,41.88
2023-05-05T06:26:00.273Z,41.92
2023-05-05T06:28:27.341Z,40.96
2023-05-05T06:30:54.789Z,40.73
2023-05-05T06:33:21.907Z,39.64
2023-05-05T06:35:49.681Z,38.55
2023-05-05T06:38:16.680Z,38.03
2023-05-05T06:40:43.675Z,39.42
2023-05-05T06:43:11.244Z,39.38
2023-05-05T06:45:44.959Z,38.76
2023-05-05T06:48:12.475Z,39.68
2023-05-05T06:50:39.457Z,39.38
2023-05-05T06:53:06.690Z,38.78
2023-05-05T06:55:33.814Z,38.45
2023-05-05T06:58:01.010Z,37.25
2023-05-05T07:00:28.079Z,35.95
2023-05-05T07:02:55.247Z,35.49
2023-05-05T07:05:22.469Z,34.94
2023-05-05T07:07:53.854Z,36.16
2023-05-05T07:10:22.651Z,36.07
2023-05-05T07:12:51.705Z,35.08
2023-05-05T07:15:27.490Z,34.47
2023-05-05T07:17:56.645Z,33.69
2023-05-05T07:20:24.354Z,34.04
2023-05-05T07:22:51.576Z,35.50
2023-05-05T07:25:18.698Z,36.42
2023-05-05T07:27:45.755Z,36.66
2023-05-05T07:30:15.555Z,36.02
2023-05-05T07:32:44.538Z,35.04
2023-05-05T07:35:11.869Z,35.19
2023-05-05T07:37:38.878Z,36.20
2023-05-05T07:40:06.653Z,36.46
2023-05-05T07:42:33.813Z,37.27
2023-05-05T07:45:00.899Z,37.06
2023-05-05T07:47:27.879Z,37.60
2023-05-05T07:49:55.041Z,37.72
2023-05-05T07:52:33.173Z,38.13
2023-05-05T07:55:05.056Z,39.67
2023-05-05T07:57:32.019Z,41.00
2023-05-05T07:59:59.024Z,40.41
2023-05-05T08:02:26.131Z,39.84
2023-05-05T08:04:53.071Z,39.72
2023-05-05T08:07:20.215Z,39.64
2023-05-05T08:09:47.182Z,40.57
2023-05-05T08:12:15.323Z,40.99
2023-05-05T08:14:42.651Z,40.61
2023-05-05T08:17:09.622Z,41.16
2023-05-05T08:19:36.824Z,41.33
2023-05-05T08:22:04.026Z,41.71
2023-05-05T08:24:31.315Z,42.14
2023-05-05T08:26:58.266Z,42.21
2023-05-05T08:29:25.324Z,43.33
2023-05-05T08:31:53.100Z,43.61
2023-05-05T08:34:20.273Z,44.63
2023-05-05T08:36:49.188Z,45.20
2023-05-05T08:39:16.672Z,46.31
2023-05-05T08:41:43.792Z,47.41
2023-05-05T08:44:11.400Z,47.49
2023-05-05T08:46:39.847Z,48.30
2023-05-05T08:49:13.338Z,49.03
2023-05-05T08:51:44.354Z,50.32
2023-05-05T08:54:18.440Z,49.50
2023-05-05T08:56:47.287Z,50.44
2023-05-05T08:59:15.849Z,49.63
2023-05-05T09:01:44.441Z,49.36
2023-05-05T09:04:11.723Z,51.35
2023-05-05T09:06:38.927Z,50.89
2023-05-05T09:09:06.862Z,51.51
2023-05-05T09:11:35.401Z,51.01
2023-05-05T09:14:02.485Z,52.46
2023-05-05T09:16:29.810Z,51.99
2023-05-05T09:19:06.092Z,53.02
2023-05-05T09:21:33.604Z,52.58
2023-05-05T09:24:09.411Z,51.73
2023-05-05T09:26:39.745Z,50.58
2023-05-05T09:29:06.979Z,49.30
2023-05-05T09:31:36.445Z,49.06
2023-05-05T09:34:15.105Z,50.03
2023-05-05T09:36:50.207Z,50.04
2023-05-05T09:39:19.897Z,50.35
2023-05-05T09:41:47.410Z,50.52
2023-05-05T09:44:17.448Z,51.94
2023-05-05T09:46:55.462Z,52.06
2023-05-05T09:49:25.620Z,51.90
2023-05-05T09:51:54.933Z,51.82
2023-05-05T09:54:29.083Z,51.00
2023-05-05T09:56:59.210Z,51.10
2023-05-05T09:59:26.334Z,51.37
2023-05-05T10:01:53.814Z,50.98
2023-05-05T10:04:28.668Z,50.21
2023-05-05T10:06:59.509Z,51.04
2023-05-05T10:09:28.228Z,49.88
2023-05-05T10:11:58.054Z,49.11
2023-05-05T10:14:25.964Z,47.73
2023-05-05T10:16:55.148Z,47.13
2023-05-05T10:19:24.004Z,46.11
2023-05-05T10:22:02.212Z,44.90
2023-05-05T10:24:39.134Z,43.30
2023-05-05T10:27:34.828Z,40.95
2023-05-05T10:30:07.570Z,40.56
2023-05-05T10:35:16.550Z,38.94
2023-05-05T10:37:44.833Z,37.74
2023-05-05T10:40:13.940Z,37.06
2023-05-05T10:42:41.634Z,35.62
2023-05-05T10:45:09.696Z,35.70
2023-05-05T10:47:40.402Z,35.13
2023-05-05T10:50:21.695Z,35.59
2023-05-05T10:53:11.200Z,37.58
2023-05-05T10:56:02.452Z,38.36
2023-05-05T10:58:55.570Z,38.57
2023-05-05T11:01:33.822Z,38.43
2023-05-05T11:04:22.946Z,39.26
2023-05-05T11:07:09.802Z,40.09
2023-05-05T11:09:55.774Z,39.94
2023-05-05T11:12:23.101Z,38.41
2023-05-05T11:15:28.567Z,36.74
2023-05-05T11:17:59.766Z,35.78
2023-05-05T11:20:39.948Z,36.27
2023-05-05T11:23:07.622Z,37.24
2023-05-05T11:25:40.925Z,38.00
2023-05-05T11:28:09.657Z,40.27
2023-05-05T11:30:57.549Z,39.75
2023-05-05T11:33:40.039Z,38.18
2023-05-05T11:36:08.956Z,36.79
2023-05-05T11:39:07.351Z,34.55
2023-05-05T11:41:40.326Z,33.75
2023-05-05T11:44:14.279Z,31.51
2023-05-05T11:47:04.327Z,32.46
2023-05-05T11:49:36.939Z,33.84
2023-05-05T11:52:06.442Z,35.30
2023-05-05T11:54:36.626Z,35.69
2023-05-05T11:57:08.475Z,37.10
2023-05-05T11:59:37.555Z,38.04
2023-05-05T12:02:05.430Z,38.44
2023-05-05T12:04:32.843Z,39.96
2023-05-05T12:07:00.420Z,40.38
2023-05-05T12:09:27.876Z,39.30
2023-05-05T12:11:57.132Z,35.58
2023-05-05T12:14:25.743Z,35.30
2023-05-05T12:17:08.849Z,34.05
2023-05-05T12:19:36.537Z,32.47
2023-05-05T12:22:05.031Z,30.66
2023-05-05T12:24:32.597Z,30.64
2023-05-05T12:27:10.717Z,30.80
2023-05-05T12:29:38.208Z,33.36
2023-05-05T12:32:05.819Z,35.13
2023-05-05T12:34:33.428Z,35.81
2023-05-05T12:37:01.311Z,33.89
2023-05-05T12:39:36.450Z,32.55
2023-05-05T12:42:06.704Z,33.57
2023-05-05T12:44:38.142Z,34.44
2023-05-05T12:47:07.323Z,36.18
2023-05-05T12:49:54.660Z,36.52
2023-05-05T12:52:21.847Z,37.56
2023-05-05T12:54:59.408Z,38.39
2023-05-05T12:57:26.733Z,38.36
2023-05-05T12:59:53.925Z,38.38
2023-05-05T13:02:21.602Z,35.69
2023-05-05T13:04:53.407Z,34.25
2023-05-05T13:07:22.335Z,33.55
2023-05-05T13:09:51.202Z,33.58
2023-05-05T13:12:18.957Z,34.79
2023-05-05T13:14:46.964Z,35.46
2023-05-05T13:17:14.870Z,35.38
2023-05-05T13:19:46.056Z,34.98
2023-05-05T13:22:14.096Z,34.74
2023-05-05T13:24:51.592Z,35.27
2023-05-05T13:27:20.865Z,34.90
2023-05-05T13:29:48.191Z,32.67
2023-05-05T13:32:15.504Z,29.44
2023-05-05T13:34:43.662Z,27.29
2023-05-05T13:37:10.827Z,26.30
2023-05-05T13:39:37.948Z,26.62
2023-05-05T13:42:05.158Z,27.85
2023-05-05T13:44:32.315Z,29.10
2023-05-05T13:46:59.609Z,30.28
2023-05-05T13:49:27.194Z,32.00
2023-05-05T13:51:55.259Z,32.41
2023-05-05T13:54:22.518Z,32.78
2023-05-05T13:56:49.707Z,30.67
2023-05-05T13:59:16.748Z,27.83
2023-05-05T14:01:44.018Z,25.45
2023-05-05T14:04:11.246Z,24.92
2023-05-05T14:06:38.589Z,24.54
2023-05-05T14:09:06.530Z,23.62
2023-05-05T14:11:33.888Z,22.85
2023-05-05T14:14:01.776Z,23.29
2023-05-05T14:16:29.148Z,24.82
2023-05-05T14:18:56.211Z,26.20
2023-05-05T14:21:23.356Z,27.51
2023-05-05T14:23:50.504Z,27.59
2023-05-05T14:26:18.196Z,27.40
2023-05-05T14:28:47.278Z,27.79
2023-05-05T14:31:16.052Z,29.42
2023-05-05T14:33:43.261Z,29.40
2023-05-05T14:36:10.568Z,30.30
2023-05-05T14:38:37.562Z,31.07
2023-05-05T14:41:04.849Z,31.48
2023-05-05T14:43:32.055Z,31.76
2023-05-05T14:46:01.020Z,31.32
2023-05-05T14:48:28.488Z,31.30
2023-05-05T14:50:55.662Z,32.12
2023-05-05T14:53:22.728Z,32.27
2023-05-05T14:55:49.910Z,32.99
2023-05-05T14:58:18.928Z,34.41
2023-05-05T15:00:45.990Z,34.74
2023-05-05T15:03:13.214Z,35.16
2023-05-05T15:05:40.585Z,35.76
2023-05-05T15:08:07.854Z,35.56
2023-05-05T15:10:35.031Z,35.97
2023-05-05T15:13:02.354Z,35.48
2023-05-05T15:15:29.430Z,36.02
2023-05-05T15:17:56.704Z,35.72
2023-05-05T15:20:23.978Z,35.38
2023-05-05T15:22:51.024Z,35.67
2023-05-05T15:25:19.386Z,35.42
2023-05-05T15:27:47.360Z,35.82
2023-05-05T15:30:14.786Z,35.45
2023-05-05T15:32:42.155Z,35.41
2023-05-05T15:35:09.630Z,34.76
2023-05-05T15:37:38.227Z,34.63
2023-05-05T15:40:05.936Z,34.57
2023-05-05T15:42:34.092Z,34.69
2023-05-05T15:45:02.016Z,34.64
2023-05-05T15:47:33.137Z,35.62
2023-05-05T15:50:00.606Z,34.79
2023-05-05T15:52:27.915Z,34.64
2023-05-05T15:54:55.080Z,35.11
2023-05-05T15:57:22.229Z,35.38
2023-05-05T15:59:53.159Z,35.32
2023-05-05T16:02:21.576Z,35.95
2023-05-05T16:04:48.723Z,35.38
2023-05-05T16:07:15.860Z,35.82
2023-05-05T16:09:43.199Z,35.52
2023-05-05T16:12:14.102Z,35.78
2023-05-05T16:14:41.220Z,35.57
2023-05-05T16:17:09.197Z,34.86
2023-05-05T16:19:36.398Z,35.38
2023-05-05T16:22:03.453Z,35.62
2023-05-05T16:24:32.211Z,35.67
2023-05-05T16:26:59.283Z,35.31
2023-05-05T16:29:26.880Z,35.73
2023-05-05T16:31:54.032Z,35.81
2023-05-05T16:34:21.165Z,35.91
2023-05-05T16:36:48.234Z,35.46
2023-05-05T16:39:15.356Z,35.83
2023-05-05T16:41:42.415Z,36.12
2023-05-05T16:44:09.653Z,36.09
2023-05-05T16:46:37.802Z,36.37
2023-05-05T16:49:04.956Z,36.49
2023-05-05T16:51:32.274Z,36.90
2023-05-05T16:53:59.329Z,37.39
2023-05-05T16:56:26.640Z,37.96
2023-05-05T16:58:53.846Z,38.35
2023-05-05T17:01:21.144Z,38.40
2023-05-05T17:03:48.427Z,38.53
2023-05-05T17:06:15.507Z,38.34
2023-05-05T17:08:42.962Z,38.77
2023-05-05T17:11:11.762Z,38.91
2023-05-05T17:13:39.218Z,38.89
2023-05-05T17:16:06.688Z,39.46
2023-05-05T17:18:33.934Z,39.76
2023-05-05T17:21:01.076Z,39.68
2023-05-05T17:23:28.219Z,40.33
2023-05-05T17:25:55.257Z,40.13
2023-05-05T17:28:22.616Z,40.22
2023-05-05T17:30:49.769Z,40.68
2023-05-05T17:33:21.564Z,40.65
2023-05-05T17:35:48.745Z,43.89
2023-05-05T17:38:16.267Z,46.45
2023-05-05T17:40:43.505Z,48.42
2023-05-05T17:43:10.576Z,46.87
2023-05-05T17:45:37.842Z,48.94
2023-05-05T17:48:05.727Z,49.25
2023-05-05T17:50:32.925Z,48.62
2023-05-05T17:53:00.162Z,50.74
2023-05-05T17:55:28.006Z,52.23
2023-05-05T17:57:57.298Z,51.34
2023-05-05T18:00:24.506Z,50.77
2023-05-05T18:02:51.582Z,49.85
2023-05-05T18:05:18.765Z,51.11
2023-05-05T18:07:45.858Z,50.48
2023-05-05T18:10:13.064Z,49.80
2023-05-05T18:12:40.286Z,50.83
2023-05-05T18:15:09.062Z,51.66
2023-05-05T18:17:37.513Z,51.01
2023-05-05T18:20:07.021Z,50.69
2023-05-05T18:22:34.666Z,50.67
2023-05-05T18:25:01.912Z,52.04
2023-05-05T18:27:36.084Z,51.91
2023-05-05T18:30:05.015Z,52.49
2023-05-05T18:32:34.109Z,51.67
2023-05-05T18:35:01.368Z,51.15
2023-05-05T18:37:28.624Z,51.06
2023-05-05T18:39:56.009Z,53.57
2023-05-05T18:42:23.288Z,54.17
2023-05-05T18:44:50.420Z,54.18
2023-05-05T18:47:17.613Z,55.41
2023-05-05T18:49:45.560Z,54.33
2023-05-05T18:52:13.804Z,54.54
2023-05-05T18:54:41.198Z,51.72
2023-05-05T18:57:09.451Z,53.09
2023-05-05T18:59:52.793Z,53.01
2023-05-05T19:02:20.353Z,51.86
2023-05-05T19:04:47.547Z,51.42
2023-05-05T19:07:27.665Z,51.46
2023-05-05T19:10:01.296Z,50.77
2023-05-05T19:12:30.768Z,48.45
2023-05-05T19:14:58.044Z,48.86
2023-05-05T19:17:25.446Z,50.50
2023-05-05T19:19:52.599Z,50.58
2023-05-05T19:22:20.846Z,52.83
2023-05-05T19:24:48.042Z,53.88
2023-05-05T19:27:17.039Z,50.81
2023-05-05T19:29:44.661Z,52.02
2023-05-05T19:32:11.866Z,51.21
2023-05-05T19:34:39.179Z,49.78
2023-05-05T19:37:06.433Z,52.51
2023-05-05T19:39:33.549Z,53.22
2023-05-05T19:42:01.076Z,52.16
2023-05-05T19:44:28.233Z,53.14
2023-05-05T19:46:55.410Z,54.44
2023-05-05T19:49:22.820Z,55.04
2023-05-05T19:51:52.229Z,53.42
2023-05-05T19:54:19.326Z,54.12
2023-05-05T19:56:46.386Z,55.91
2023-05-05T19:59:13.667Z,56.05
2023-05-05T20:01:40.969Z,51.39
2023-05-05T20:04:08.151Z,49.33
2023-05-05T20:06:36.369Z,50.11
2023-05-05T20:09:04.666Z,53.80
2023-05-05T20:11:32.110Z,57.36
2023-05-05T20:13:59.576Z,57.82
2023-05-05T20:16:26.999Z,58.57
2023-05-05T20:18:54.223Z,58.57
2023-05-05T20:21:21.372Z,56.15
2023-05-05T20:23:48.631Z,55.85
2023-05-05T20:26:15.883Z,56.99
2023-05-05T20:28:45.296Z,55.38
2023-05-05T20:31:14.634Z,55.79
2023-05-05T20:33:41.971Z,54.96
2023-05-05T20:36:09.602Z,55.91
2023-05-05T20:38:39.053Z,56.34
2023-05-05T20:41:06.563Z,54.44
2023-05-05T20:43:34.046Z,52.73
2023-05-05T20:46:01.292Z,51.21
2023-05-05T20:48:29.519Z,51.64
2023-05-05T20:50:57.383Z,51.51
2023-05-05T20:53:25.576Z,51.92
2023-05-05T20:55:52.773Z,49.84
2023-05-05T20:58:19.868Z,49.66
2023-05-05T21:00:47.379Z,48.71
2023-05-05T21:03:14.651Z,48.43
2023-05-05T21:05:41.692Z,48.22
2023-05-05T21:08:09.022Z,47.53
2023-05-05T21:10:36.602Z,46.39
2023-05-05T21:13:05.005Z,45.84
2023-05-05T21:15:32.194Z,45.41
2023-05-05T21:17:59.480Z,46.08
2023-05-05T21:20:27.050Z,45.13
2023-05-05T21:22:54.137Z,45.04
2023-05-05T21:25:21.686Z,45.42
2023-05-05T21:27:49.281Z,44.27
2023-05-05T21:30:17.340Z,44.86
2023-05-05T21:32:45.010Z,44.36
2023-05-05T21:35:12.561Z,44.98
2023-05-05T21:37:40.156Z,44.83
2023-05-05T21:40:13.872Z,44.50
2023-05-05T21:42:42.174Z,44.93
2023-05-05T21:45:11.134Z,45.03
2023-05-05T21:47:38.144Z,45.54
2023-05-05T21:50:05.690Z,45.28
2023-05-05T21:52:32.928Z,45.08
2023-05-05T21:55:00.188Z,45.48
2023-05-05T21:57:27.412Z,45.65
2023-05-05T21:59:54.460Z,45.68
2023-05-05T22:02:21.588Z,45.28
2023-05-05T22:04:51.377Z,45.46
2023-05-05T22:07:18.528Z,45.80
2023-05-05T22:09:46.094Z,45.83
2023-05-05T22:12:13.287Z,47.03
2023-05-05T22:14:40.320Z,47.04
2023-05-05T22:17:07.430Z,46.15
2023-05-05T22:19:34.458Z,46.61
2023-05-05T22:22:01.698Z,46.42
2023-05-05T22:24:29.763Z,46.81
2023-05-05T22:26:57.450Z,46.58
2023-05-05T22:29:25.341Z,46.86
2023-05-05T22:31:52.953Z,46.85
2023-05-05T22:34:21.971Z,47.20
2023-05-05T22:36:49.971Z,47.24
2023-05-05T22:39:18.659Z,47.53
2023-05-05T22:41:45.938Z,47.76
2023-05-05T22:44:13.083Z,48.27
2023-05-05T22:46:41.000Z,48.31
2023-05-05T22:49:08.129Z,48.13
2023-05-05T22:51:35.311Z,48.64
2023-05-05T22:54:02.426Z,48.45
2023-05-05T22:56:29.535Z,48.72
2023-05-05T22:58:56.663Z,49.48
2023-05-05T23:01:24.078Z,48.94
2023-05-05T23:03:51.231Z,49.96
2023-05-05T23:06:18.337Z,49.04
2023-05-05T23:08:46.256Z,49.32
2023-05-05T23:11:13.305Z,49.73
2023-05-05T23:13:40.313Z,50.14
2023-05-05T23:16:07.583Z,49.97
2023-05-05T23:18:36.754Z,50.46
2023-05-05T23:21:04.138Z,50.38
2023-05-05T23:23:31.328Z,50.86
2023-05-05T23:25:58.419Z,50.44
2023-05-05T23:28:25.560Z,50.78
2023-05-05T23:30:52.698Z,50.75
2023-05-05T23:33:19.863Z,50.65
2023-05-05T23:35:47.223Z,50.91
2023-05-05T23:38:14.124Z,51.03
2023-05-05T23:40:41.114Z,50.88
2023-05-05T23:43:08.191Z,50.88
2023-05-05T23:45:35.265Z,51.08
2023-05-05T23:48:02.404Z,50.88
2023-05-05T23:50:30.459Z,51.44
2023-05-05T23:52:57.647Z,51.67
2023-05-05T23:55:24.703Z,52.33
2023-05-05T23:57:53.176Z,52.29
